createdAt,value
2018-10-09T00:00:21.448Z,147083.52
2018-10-09T00:02:51.494Z,147051.25
2018-10-09T00:05:25.003Z,147056.22
2018-10-09T00:07:55.788Z,147046.31
2018-10-09T00:10:25.799Z,147030.20
2018-10-09T00:12:55.918Z,147045.06
2018-10-09T00:15:27.013Z,147041.36
2018-10-09T00:17:56.996Z,147032.69
2018-10-09T00:20:28.751Z,147046.31
2018-10-09T00:23:02.127Z,147046.31
2018-10-09T00:25:33.792Z,147025.20
2018-10-09T00:28:03.765Z,147043.83
2018-10-09T00:30:33.661Z,147032.69
2018-10-09T00:33:03.552Z,147051.25
2018-10-09T00:35:33.381Z,147041.36
2018-10-09T00:38:03.540Z,147031.44
2018-10-09T00:40:33.796Z,147046.31
2018-10-09T00:43:04.820Z,147027.72
2018-10-09T00:45:34.732Z,147041.36
2018-10-09T00:48:05.062Z,147026.44
2018-10-09T00:50:35.080Z,147031.44
2018-10-09T00:53:06.992Z,147053.73
2018-10-09T00:55:36.895Z,147051.25
2018-10-09T00:58:07.092Z,147038.88
2018-10-09T01:00:37.245Z,147028.97
2018-10-09T01:03:07.196Z,147028.97
2018-10-09T01:05:37.006Z,147037.63
2018-10-09T01:08:06.866Z,147012.81
2018-10-09T01:10:36.943Z,147019.00
2018-10-09T01:13:06.929Z,147009.09
2018-10-09T01:15:36.981Z,147010.34
2018-10-09T01:18:07.030Z,147001.67
2018-10-09T01:20:36.943Z,147001.67
2018-10-09T01:23:07.431Z,147004.14
2018-10-09T01:25:37.749Z,146986.81
2018-10-09T01:28:07.793Z,146994.23
2018-10-09T01:30:38.282Z,146999.19
2018-10-09T01:33:09.192Z,147006.63
2018-10-09T01:35:39.372Z,147016.53
2018-10-09T01:38:10.044Z,147021.48
2018-10-09T01:40:39.978Z,147007.86
2018-10-09T01:43:09.720Z,146994.23
2018-10-09T01:45:39.812Z,147011.58
2018-10-09T01:48:09.808Z,146993.00
2018-10-09T01:50:39.566Z,146976.84
2018-10-09T01:53:09.527Z,146971.91
2018-10-09T01:55:39.640Z,146985.56
2018-10-09T01:58:09.589Z,146975.61
2018-10-09T02:00:39.320Z,146988.05
2018-10-09T02:03:09.788Z,146984.33
2018-10-09T02:05:39.729Z,146978.09
2018-10-09T02:08:09.678Z,146978.09
2018-10-09T02:10:39.656Z,146978.09
2018-10-09T02:13:09.602Z,146989.28
2018-10-09T02:15:39.665Z,146986.81
2018-10-09T02:18:09.533Z,146993.00
2018-10-09T02:20:39.667Z,147004.14
2018-10-09T02:23:09.635Z,146978.09
2018-10-09T02:25:40.229Z,146985.56
2018-10-09T02:28:10.365Z,146965.70
2018-10-09T02:30:40.663Z,146981.84
2018-10-09T02:33:12.775Z,146983.09
2018-10-09T02:35:42.390Z,146986.81
2018-10-09T02:38:12.930Z,146994.23
2018-10-09T02:40:43.118Z,146980.61
2018-10-09T02:43:12.940Z,146980.61
2018-10-09T02:45:43.002Z,146995.47
2018-10-09T02:48:13.230Z,146993.00
2018-10-09T02:50:43.655Z,146991.75
2018-10-09T02:53:14.709Z,147004.14
2018-10-09T02:55:44.599Z,147016.53
2018-10-09T02:58:15.091Z,147011.58
2018-10-09T03:00:45.043Z,147006.63
2018-10-09T03:03:14.993Z,147016.53
2018-10-09T03:05:45.249Z,147027.72
2018-10-09T03:08:15.739Z,147037.63
2018-10-09T03:10:46.536Z,147031.44
2018-10-09T03:13:17.834Z,147046.31
2018-10-09T03:15:47.842Z,147045.06
2018-10-09T03:18:18.672Z,147074.84
2018-10-09T03:20:48.792Z,147068.59
2018-10-09T03:23:19.007Z,147053.73
2018-10-09T03:25:48.933Z,147052.50
2018-10-09T03:28:19.269Z,147047.55
2018-10-09T03:30:49.714Z,147040.11
2018-10-09T03:33:19.810Z,147028.97
2018-10-09T03:35:51.429Z,146975.61
2018-10-09T03:38:29.191Z,146954.56
2018-10-09T03:40:59.557Z,146964.47
2018-10-09T03:43:31.104Z,146921.03
2018-10-09T03:46:01.588Z,146919.78
2018-10-09T03:48:31.719Z,146918.55
2018-10-09T03:51:02.703Z,146916.08
2018-10-09T03:53:33.116Z,146947.08
2018-10-09T03:56:03.395Z,146944.61
2018-10-09T03:58:34.686Z,146942.13
2018-10-09T04:01:05.666Z,146934.70
2018-10-09T04:03:36.195Z,146895.03
2018-10-09T04:06:08.300Z,146888.84
2018-10-09T04:08:39.125Z,146886.31
2018-10-09T04:11:10.025Z,146882.59
2018-10-09T04:13:40.178Z,146887.59
2018-10-09T04:16:11.995Z,146885.08
2018-10-09T04:18:44.401Z,146878.88
2018-10-09T04:21:14.612Z,146883.84
2018-10-09T04:23:45.446Z,146885.08
2018-10-09T04:26:15.729Z,146876.41
2018-10-09T04:28:45.978Z,146891.31
2018-10-09T04:31:16.089Z,146901.22
2018-10-09T04:33:46.487Z,146898.75
2018-10-09T04:36:16.718Z,146939.66
2018-10-09T04:38:46.793Z,146948.31
2018-10-09T04:41:17.731Z,146938.41
2018-10-09T04:43:48.785Z,146952.08
2018-10-09T04:46:18.965Z,146934.70
2018-10-09T04:48:49.464Z,146948.31
2018-10-09T04:51:19.627Z,146976.84
2018-10-09T04:53:49.684Z,146991.75
2018-10-09T04:56:19.891Z,147000.44
2018-10-09T04:58:50.826Z,147011.58
2018-10-09T05:01:23.111Z,147022.72
2018-10-09T05:03:55.325Z,147030.20
2018-10-09T05:06:25.978Z,147051.25
2018-10-09T05:08:56.975Z,147081.03
2018-10-09T05:11:28.269Z,147089.72
2018-10-09T05:13:59.673Z,147114.48
2018-10-09T05:16:29.793Z,147141.80
2018-10-09T05:18:59.857Z,147165.34
2018-10-09T05:21:31.652Z,147182.75
2018-10-09T05:24:01.950Z,147183.97
2018-10-09T05:26:32.876Z,147210.00
2018-10-09T05:29:03.975Z,147211.25
2018-10-09T05:31:34.520Z,147229.88
2018-10-09T05:34:04.986Z,147254.67
2018-10-09T05:36:36.458Z,147274.59
2018-10-09T05:39:08.147Z,147313.08
2018-10-09T05:41:38.799Z,147341.59
2018-10-09T05:44:09.732Z,147388.77
2018-10-09T05:46:41.714Z,147526.58
2018-10-09T05:49:12.667Z,147758.94
2018-10-09T05:51:43.392Z,147821.11
2018-10-09T05:54:14.681Z,147768.88
2018-10-09T05:56:44.630Z,147722.89
2018-10-09T05:59:20.387Z,147794.98
2018-10-09T06:01:51.763Z,148047.42
2018-10-09T06:04:22.730Z,148122.13
2018-10-09T06:06:53.040Z,148320.03
2018-10-09T06:09:23.453Z,148432.06
2018-10-09T06:11:53.742Z,148521.78
2018-10-09T06:14:23.897Z,148408.42
2018-10-09T06:16:54.174Z,148323.75
2018-10-09T06:19:24.586Z,148204.20
2018-10-09T06:21:54.804Z,148073.61
2018-10-09T06:24:25.035Z,147951.66
2018-10-09T06:26:55.517Z,147841.03
2018-10-09T06:29:26.614Z,147751.48
2018-10-09T06:31:57.510Z,147694.34
2018-10-09T06:34:27.907Z,147619.78
2018-10-09T06:36:58.038Z,147614.81
2018-10-09T06:39:28.264Z,147593.72
2018-10-09T06:41:58.485Z,147601.17
2018-10-09T06:44:28.849Z,147599.92
2018-10-09T06:46:59.135Z,147606.13
2018-10-09T06:49:29.277Z,147645.89
2018-10-09T06:51:59.583Z,147654.58
2018-10-09T06:54:30.260Z,147671.95
2018-10-09T06:57:00.703Z,147669.47
2018-10-09T06:59:33.288Z,147665.75
2018-10-09T07:02:04.032Z,147694.34
2018-10-09T07:04:34.694Z,147726.61
2018-10-09T07:07:04.831Z,147760.19
2018-10-09T07:09:34.898Z,147773.84
2018-10-09T07:12:05.291Z,147791.27
2018-10-09T07:14:37.072Z,147818.62
2018-10-09T07:17:07.333Z,147817.39
2018-10-09T07:19:37.695Z,147826.08
2018-10-09T07:22:08.135Z,147859.66
2018-10-09T07:24:38.485Z,147864.63
2018-10-09T07:27:08.978Z,147859.66
2018-10-09T07:29:39.334Z,147895.72
2018-10-09T07:32:10.816Z,147914.34
2018-10-09T07:34:41.040Z,147942.97
2018-10-09T07:37:11.273Z,147988.97
2018-10-09T07:39:41.321Z,148020.09
2018-10-09T07:42:11.863Z,148028.78
2018-10-09T07:44:44.156Z,148030.03
2018-10-09T07:47:14.735Z,148048.70
2018-10-09T07:49:45.644Z,148062.38
2018-10-09T07:52:15.615Z,148036.23
2018-10-09T07:54:45.404Z,148012.58
2018-10-09T07:57:15.101Z,148094.73
2018-10-09T07:59:44.826Z,148098.47
2018-10-09T08:02:14.602Z,148099.70
2018-10-09T08:04:45.355Z,148074.84
2018-10-09T08:07:15.215Z,148081.06
2018-10-09T08:09:45.218Z,148039.97
2018-10-09T08:12:15.045Z,148067.41
2018-10-09T08:14:44.775Z,148093.48
2018-10-09T08:17:14.599Z,148076.09
2018-10-09T08:19:45.577Z,148092.25
2018-10-09T08:22:15.817Z,148109.66
2018-10-09T08:24:46.511Z,148104.67
2018-10-09T08:27:17.196Z,148138.28
2018-10-09T08:29:46.964Z,148148.22
2018-10-09T08:32:16.862Z,148173.13
2018-10-09T08:34:46.823Z,148201.72
2018-10-09T08:37:16.627Z,148183.08
2018-10-09T08:39:46.453Z,148181.83
2018-10-09T08:42:17.011Z,148212.95
2018-10-09T08:44:47.013Z,148199.23
2018-10-09T08:47:16.703Z,148206.75
2018-10-09T08:49:46.552Z,148256.52
2018-10-09T08:52:16.345Z,148261.50
2018-10-09T08:54:46.058Z,148261.50
2018-10-09T08:57:16.461Z,148268.95
2018-10-09T08:59:50.090Z,148275.17
2018-10-09T09:02:19.996Z,148259.00
2018-10-09T09:04:49.743Z,148271.44
2018-10-09T09:07:19.507Z,148292.63
2018-10-09T09:09:49.252Z,148302.63
2018-10-09T09:12:19.021Z,148278.91
2018-10-09T09:14:49.592Z,148302.63
2018-10-09T09:17:19.361Z,148332.47
2018-10-09T09:19:49.044Z,148302.63
2018-10-09T09:22:18.932Z,148331.22
2018-10-09T09:24:49.376Z,148333.70
2018-10-09T09:27:19.286Z,148353.66
2018-10-09T09:29:49.631Z,148343.66
2018-10-09T09:32:19.533Z,148327.50
2018-10-09T09:34:50.720Z,148364.84
2018-10-09T09:37:20.856Z,148348.69
2018-10-09T09:39:50.741Z,148366.09
2018-10-09T09:42:20.757Z,148349.92
2018-10-09T09:44:50.477Z,148337.44
2018-10-09T09:47:20.320Z,148356.14
2018-10-09T09:49:51.394Z,148388.48
2018-10-09T09:52:21.537Z,148388.48
2018-10-09T09:54:52.241Z,148402.22
2018-10-09T09:57:23.670Z,148383.50
2018-10-09T09:59:53.706Z,148410.91
2018-10-09T10:02:23.804Z,148400.97
2018-10-09T10:04:54.274Z,148410.91
2018-10-09T10:07:24.813Z,148443.31
2018-10-09T10:09:55.105Z,148415.89
2018-10-09T10:12:25.800Z,148357.38
2018-10-09T10:14:57.774Z,148461.97
2018-10-09T10:17:27.574Z,148452.02
2018-10-09T10:19:57.244Z,148499.34
2018-10-09T10:22:27.539Z,148491.87
2018-10-09T10:24:57.328Z,148469.44
2018-10-09T10:27:27.093Z,148466.94
2018-10-09T10:29:57.139Z,148465.69
2018-10-09T10:32:27.023Z,148516.81
2018-10-09T10:34:57.464Z,148508.09
2018-10-09T10:37:27.577Z,148498.09
2018-10-09T10:39:57.454Z,148509.34
2018-10-09T10:42:27.156Z,148530.50
2018-10-09T10:44:56.919Z,148500.58
2018-10-09T10:47:26.763Z,148485.61
2018-10-09T10:49:58.053Z,148510.58
2018-10-09T10:52:28.477Z,148505.61
2018-10-09T10:54:59.743Z,148505.61
2018-10-09T10:57:29.908Z,148468.19
2018-10-09T11:00:00.111Z,148458.23
2018-10-09T11:02:30.257Z,148489.38
2018-10-09T11:05:00.501Z,148486.84
2018-10-09T11:07:31.172Z,148496.84
2018-10-09T11:10:01.525Z,148510.58
2018-10-09T11:12:32.172Z,148495.61
2018-10-09T11:15:02.732Z,148450.77
2018-10-09T11:17:33.550Z,148437.03
2018-10-09T11:20:04.645Z,148466.94
2018-10-09T11:22:36.592Z,148498.09
2018-10-09T11:25:07.635Z,148480.62
2018-10-09T11:27:37.614Z,148481.88
2018-10-09T11:30:07.944Z,148490.63
2018-10-09T11:32:38.640Z,148491.87
2018-10-09T11:35:08.735Z,148530.50
2018-10-09T11:37:38.494Z,148540.50
2018-10-09T11:40:08.280Z,148550.45
2018-10-09T11:42:38.040Z,148540.50
2018-10-09T11:45:07.969Z,148539.25
2018-10-09T11:47:37.934Z,148550.45
2018-10-09T11:50:09.083Z,148531.73
2018-10-09T11:52:38.834Z,148519.30
2018-10-09T11:55:08.993Z,148518.05
2018-10-09T11:57:40.918Z,148525.52
2018-10-09T12:00:10.866Z,148518.05
2018-10-09T12:02:41.166Z,148504.36
2018-10-09T12:05:10.919Z,148504.36
2018-10-09T12:07:41.263Z,148496.84
2018-10-09T12:10:11.036Z,148460.72
2018-10-09T12:12:41.088Z,148444.55
2018-10-09T12:15:10.915Z,148494.36
2018-10-09T12:17:40.599Z,148491.87
2018-10-09T12:20:10.536Z,148478.14
2018-10-09T12:22:40.307Z,148500.58
2018-10-09T12:25:11.798Z,148480.62
2018-10-09T12:27:41.663Z,148473.16
2018-10-09T12:30:11.451Z,148466.94
2018-10-09T12:32:41.574Z,148479.38
2018-10-09T12:35:12.571Z,148480.62
2018-10-09T12:37:42.410Z,148489.38
2018-10-09T12:40:12.848Z,148471.92
2018-10-09T12:42:43.128Z,148486.84
2018-10-09T12:45:12.780Z,148438.28
2018-10-09T12:47:42.536Z,148447.03
2018-10-09T12:50:15.701Z,148432.06
2018-10-09T12:52:45.753Z,148437.03
2018-10-09T12:55:16.898Z,148427.09
2018-10-09T12:57:47.397Z,148398.47
2018-10-09T13:00:19.527Z,148410.91
2018-10-09T13:02:50.794Z,148419.62
2018-10-09T13:05:21.723Z,148440.77
2018-10-09T13:07:52.047Z,148450.77
2018-10-09T13:10:22.345Z,148439.53
2018-10-09T13:12:54.055Z,148438.28
2018-10-09T13:15:24.245Z,148427.09
2018-10-09T13:17:55.233Z,148424.59
2018-10-09T13:20:27.186Z,148398.47
2018-10-09T13:22:58.986Z,148420.88
2018-10-09T13:25:30.176Z,148424.59
2018-10-09T13:27:59.955Z,148382.25
2018-10-09T13:30:29.770Z,148399.72
2018-10-09T13:32:59.639Z,148390.97
2018-10-09T13:35:29.539Z,148354.91
2018-10-09T13:37:59.381Z,148363.61
2018-10-09T13:40:29.175Z,148337.44
2018-10-09T13:42:59.196Z,148346.14
2018-10-09T13:45:30.010Z,148351.16
2018-10-09T13:48:06.422Z,148348.69
2018-10-09T13:50:39.073Z,148339.92
2018-10-09T13:53:09.184Z,148343.66
2018-10-09T13:55:41.193Z,148352.41
2018-10-09T13:58:11.765Z,148348.69
2018-10-09T14:00:42.001Z,148358.62
2018-10-09T14:03:12.788Z,148368.58
2018-10-09T14:05:43.292Z,148381.02
2018-10-09T14:08:13.558Z,148390.97
2018-10-09T14:10:44.006Z,148398.47
2018-10-09T14:13:13.957Z,148400.97
2018-10-09T14:15:44.045Z,148407.19
2018-10-09T14:18:14.757Z,148361.11
2018-10-09T14:20:45.044Z,148342.41
2018-10-09T14:23:14.795Z,148346.14
2018-10-09T14:25:45.047Z,148344.91
2018-10-09T14:28:14.836Z,148328.73
2018-10-09T14:30:44.731Z,148301.37
2018-10-09T14:33:15.400Z,148323.75
2018-10-09T14:35:45.436Z,148328.73
2018-10-09T14:38:15.612Z,148302.63
2018-10-09T14:40:46.802Z,148296.34
2018-10-09T14:43:16.551Z,148287.66
2018-10-09T14:45:46.801Z,148285.16
2018-10-09T14:48:17.021Z,148252.78
2018-10-09T14:50:49.045Z,148221.66
2018-10-09T14:53:19.345Z,148220.42
2018-10-09T14:55:49.393Z,148209.22
2018-10-09T14:58:20.651Z,148204.20
2018-10-09T15:00:50.716Z,148175.62
2018-10-09T15:03:20.974Z,148155.69
2018-10-09T15:05:51.464Z,148135.80
2018-10-09T15:08:21.850Z,148134.55
2018-10-09T15:10:51.809Z,148114.67
2018-10-09T15:13:21.490Z,148102.19
2018-10-09T15:15:51.728Z,148077.34
2018-10-09T15:18:21.482Z,148053.69
2018-10-09T15:20:52.111Z,148039.97
2018-10-09T15:23:22.283Z,148010.09
2018-10-09T15:25:52.518Z,148000.16
2018-10-09T15:28:22.193Z,147966.56
2018-10-09T15:30:52.002Z,147945.45
2018-10-09T15:33:21.773Z,147942.97
2018-10-09T15:35:51.824Z,147930.55
2018-10-09T15:38:22.568Z,147914.34
2018-10-09T15:40:52.408Z,147903.17
2018-10-09T15:43:23.541Z,147874.56
2018-10-09T15:45:53.387Z,147857.17
2018-10-09T15:48:24.356Z,147859.66
2018-10-09T15:50:54.331Z,147844.75
2018-10-09T15:53:24.113Z,147821.11
2018-10-09T15:55:53.828Z,147791.27
2018-10-09T15:58:23.773Z,147776.31
2018-10-09T16:00:53.602Z,147767.62
2018-10-09T16:03:23.431Z,147767.62
2018-10-09T16:05:54.473Z,147755.22
2018-10-09T16:08:24.351Z,147726.61
2018-10-09T16:10:54.335Z,147704.28
2018-10-09T16:13:24.108Z,147704.28
2018-10-09T16:15:53.888Z,147681.88
2018-10-09T16:18:24.703Z,147684.38
2018-10-09T16:20:56.812Z,147653.34
2018-10-09T16:23:27.982Z,147639.69
2018-10-09T16:25:59.731Z,147640.92
2018-10-09T16:28:29.814Z,147613.58
2018-10-09T16:31:00.749Z,147623.50
2018-10-09T16:33:30.485Z,147612.34
2018-10-09T16:36:00.612Z,147597.44
2018-10-09T16:38:33.614Z,147582.50
2018-10-09T16:41:04.675Z,147576.31
2018-10-09T16:43:34.628Z,147565.12
2018-10-09T16:46:04.913Z,147565.12
2018-10-09T16:48:36.102Z,147540.28
2018-10-09T16:51:07.475Z,147473.19
2018-10-09T16:53:37.863Z,147445.86
2018-10-09T16:56:08.388Z,147411.13
2018-10-09T16:58:40.768Z,147416.09
2018-10-09T17:01:11.097Z,147409.89
2018-10-09T17:03:41.373Z,147404.94
2018-10-09T17:06:11.746Z,147396.20
2018-10-09T17:08:47.576Z,147414.86
2018-10-09T17:11:19.371Z,147390.00
2018-10-09T17:13:49.751Z,147393.72
2018-10-09T17:16:19.856Z,147393.72
2018-10-09T17:18:49.610Z,147380.08
2018-10-09T17:21:21.047Z,147392.48
2018-10-09T17:23:56.246Z,147371.41
2018-10-09T17:26:27.705Z,147368.92
2018-10-09T17:28:58.358Z,147385.05
2018-10-09T17:31:28.243Z,147383.80
2018-10-09T17:33:58.681Z,147370.16
2018-10-09T17:36:30.865Z,147361.48
2018-10-09T17:39:00.936Z,147366.44
2018-10-09T17:41:31.897Z,147380.08
2018-10-09T17:44:01.986Z,147371.41
2018-10-09T17:46:32.196Z,147347.80
2018-10-09T17:49:02.360Z,147339.11
2018-10-09T17:51:32.090Z,147327.95
2018-10-09T17:54:02.561Z,147321.75
2018-10-09T17:56:33.631Z,147310.59
2018-10-09T17:59:03.812Z,147301.88
2018-10-09T18:01:33.655Z,147305.59
2018-10-09T18:04:04.282Z,147309.31
2018-10-09T18:06:34.185Z,147316.80
2018-10-09T18:09:05.507Z,147324.23
2018-10-09T18:11:35.420Z,147326.72
2018-10-09T18:14:05.990Z,147335.39
2018-10-09T18:16:35.757Z,147335.39
2018-10-09T18:19:07.400Z,147346.56
2018-10-09T18:21:37.707Z,147351.52
2018-10-09T18:24:11.526Z,147341.59
2018-10-09T18:26:42.802Z,147341.59
2018-10-09T18:29:13.666Z,147309.31
2018-10-09T18:31:45.066Z,147326.72
2018-10-09T18:34:17.001Z,147314.31
2018-10-09T18:36:48.230Z,147334.16
2018-10-09T18:39:18.574Z,147349.03
2018-10-09T18:41:49.493Z,147347.80
2018-10-09T18:44:21.530Z,147341.59
2018-10-09T18:46:51.313Z,147336.64
2018-10-09T18:49:21.845Z,147341.59
2018-10-09T18:51:51.738Z,147342.84
2018-10-09T18:54:21.669Z,147323.00
2018-10-09T18:56:51.463Z,147314.31
2018-10-09T18:59:21.940Z,147315.56
2018-10-09T19:01:51.654Z,147313.08
2018-10-09T19:04:21.387Z,147311.84
2018-10-09T19:06:51.188Z,147319.28
2018-10-09T19:09:20.958Z,147306.83
2018-10-09T19:11:50.727Z,147294.44
2018-10-09T19:14:20.573Z,147296.91
2018-10-09T19:16:50.463Z,147284.52
2018-10-09T19:19:20.963Z,147289.47
2018-10-09T19:21:51.514Z,147296.91
2018-10-09T19:24:31.382Z,147296.91
2018-10-09T19:27:01.609Z,147289.47
2018-10-09T19:29:31.517Z,147296.91
2018-10-09T19:32:01.195Z,147283.28
2018-10-09T19:34:34.935Z,147299.39
2018-10-09T19:37:06.087Z,147282.03
2018-10-09T19:39:37.651Z,147283.28
2018-10-09T19:42:08.363Z,147263.44
2018-10-09T19:44:38.217Z,147263.44
2018-10-09T19:47:08.081Z,147259.67
2018-10-09T19:49:37.845Z,147247.23
2018-10-09T19:52:10.987Z,147275.84
2018-10-09T19:54:40.790Z,147257.20
2018-10-09T19:57:11.658Z,147257.20
2018-10-09T19:59:41.691Z,147250.95
2018-10-09T20:02:12.694Z,147250.95
2018-10-09T20:04:43.651Z,147246.00
2018-10-09T20:07:15.949Z,147272.13
2018-10-09T20:09:46.106Z,147285.75
2018-10-09T20:12:15.891Z,147274.59
2018-10-09T20:14:46.901Z,147270.88
2018-10-09T20:17:17.589Z,147270.88
2018-10-09T20:19:47.648Z,147260.92
2018-10-09T20:22:17.725Z,147285.75
2018-10-09T20:24:47.464Z,147284.52
2018-10-09T20:27:17.490Z,147298.16
2018-10-09T20:29:47.866Z,147287.00
2018-10-09T20:32:18.098Z,147311.84
2018-10-09T20:34:48.774Z,147318.03
2018-10-09T20:37:18.909Z,147124.45
2018-10-09T20:39:50.070Z,147341.59
2018-10-09T20:42:20.598Z,147329.20
2018-10-09T20:44:51.004Z,147337.88
2018-10-09T20:47:26.041Z,147326.72
2018-10-09T20:49:57.138Z,147325.47
2018-10-09T20:52:28.253Z,147325.47
2018-10-09T20:54:58.002Z,147314.31
2018-10-09T20:57:28.197Z,147316.80
2018-10-09T20:59:58.183Z,147313.08
2018-10-09T21:02:28.364Z,147306.83
2018-10-09T21:04:58.948Z,147310.59
2018-10-09T21:07:30.749Z,147306.83
2018-10-09T21:10:01.247Z,147296.91
2018-10-09T21:12:32.313Z,147295.67
2018-10-09T21:15:04.642Z,147289.47
2018-10-09T21:17:35.352Z,147289.47
2018-10-09T21:20:05.635Z,147273.36
2018-10-09T21:22:35.588Z,147274.59
2018-10-09T21:25:08.946Z,147259.67
2018-10-09T21:27:38.776Z,147253.44
2018-10-09T21:30:08.888Z,147243.52
2018-10-09T21:32:39.362Z,147234.84
2018-10-09T21:35:09.356Z,147233.59
2018-10-09T21:37:39.195Z,147227.41
2018-10-09T21:40:09.100Z,147227.41
2018-10-09T21:42:38.896Z,147229.88
2018-10-09T21:45:10.014Z,147226.16
2018-10-09T21:47:43.823Z,147221.20
2018-10-09T21:50:13.727Z,147205.05
2018-10-09T21:52:43.400Z,147206.28
2018-10-09T21:55:13.526Z,147196.38
2018-10-09T21:57:43.560Z,147201.33
2018-10-09T22:00:14.362Z,147203.81
2018-10-09T22:02:44.280Z,147212.48
2018-10-09T22:05:14.440Z,147217.48
2018-10-09T22:07:44.182Z,147206.28
2018-10-09T22:10:13.851Z,147217.48
2018-10-09T22:12:43.608Z,147203.81
2018-10-09T22:15:13.498Z,147205.05
2018-10-09T22:17:43.199Z,147205.05
2018-10-09T22:20:12.974Z,147201.33
2018-10-09T22:22:42.809Z,147206.28
2018-10-09T22:25:12.658Z,147205.05
2018-10-09T22:27:42.936Z,147201.33
2018-10-09T22:30:12.816Z,147196.38
2018-10-09T22:32:42.822Z,147195.12
2018-10-09T22:35:12.765Z,147185.22
2018-10-09T22:37:42.569Z,147177.78
2018-10-09T22:40:12.446Z,147181.50
2018-10-09T22:42:42.277Z,147191.41
2018-10-09T22:45:12.126Z,147187.70
2018-10-09T22:47:42.219Z,147200.09
2018-10-09T22:50:12.495Z,147192.66
2018-10-09T22:52:44.035Z,147180.25
2018-10-09T22:55:14.016Z,147191.41
2018-10-09T22:57:43.831Z,147191.41
2018-10-09T23:00:14.072Z,147196.38
2018-10-09T23:02:46.140Z,147183.97
2018-10-09T23:05:17.191Z,147185.22
2018-10-09T23:07:47.292Z,147190.17
2018-10-09T23:10:17.496Z,147196.38
2018-10-09T23:12:47.699Z,147202.56
2018-10-09T23:15:18.835Z,147203.81
2018-10-09T23:17:49.212Z,147185.22
2018-10-09T23:20:20.729Z,147216.25
2018-10-09T23:22:50.724Z,147217.48
2018-10-09T23:25:21.159Z,147213.72
2018-10-09T23:27:51.714Z,147224.92
2018-10-09T23:30:22.090Z,147227.41
2018-10-09T23:32:52.705Z,147216.25
2018-10-09T23:35:24.460Z,147222.44
2018-10-09T23:37:54.700Z,147205.05
2018-10-09T23:40:24.883Z,147202.56
2018-10-09T23:42:55.119Z,147205.05
2018-10-09T23:45:25.727Z,147202.56
2018-10-09T23:48:01.903Z,147201.33
2018-10-09T23:50:33.024Z,147180.25
2018-10-09T23:53:03.463Z,147185.22
2018-10-09T23:55:35.288Z,147175.30
2018-10-09T23:58:05.558Z,147182.75
